createdAt,value
2023-02-13T00:00:53.751Z,79.79
2023-02-13T00:03:24.705Z,79.71
2023-02-13T00:05:53.841Z,79.65
2023-02-13T00:08:22.924Z,79.76
2023-02-13T00:10:51.962Z,79.75
2023-02-13T00:13:21.004Z,79.76
2023-02-13T00:15:56.681Z,79.64
2023-02-13T00:18:25.998Z,79.76
2023-02-13T00:21:02.035Z,79.46
2023-02-13T00:23:31.896Z,79.69
2023-02-13T00:26:01.620Z,79.71
2023-02-13T00:28:30.814Z,79.85
2023-02-13T00:31:04.554Z,79.88
2023-02-13T00:33:33.764Z,79.82
2023-02-13T00:36:07.567Z,79.84
2023-02-13T00:38:37.118Z,79.85
2023-02-13T00:41:06.503Z,79.93
2023-02-13T00:43:35.672Z,79.94
2023-02-13T00:46:05.289Z,79.93
2023-02-13T00:48:34.858Z,79.94
2023-02-13T00:51:04.726Z,79.91
2023-02-13T00:53:34.299Z,80.02
2023-02-13T00:56:04.140Z,80.05
2023-02-13T00:58:34.053Z,79.97
2023-02-13T01:01:03.186Z,80.19
2023-02-13T01:03:32.388Z,80.28
2023-02-13T01:06:01.545Z,80.35
2023-02-13T01:08:30.842Z,80.52
2023-02-13T01:11:00.436Z,80.62
2023-02-13T01:13:29.662Z,80.56
2023-02-13T01:15:58.827Z,80.52
2023-02-13T01:18:27.943Z,80.42
2023-02-13T01:20:58.876Z,80.63
2023-02-13T01:23:31.175Z,80.88
2023-02-13T01:26:00.596Z,80.88
2023-02-13T01:28:29.694Z,80.94
2023-02-13T01:30:59.532Z,80.95
2023-02-13T01:33:29.293Z,81.04
2023-02-13T01:35:58.515Z,81.07
2023-02-13T01:38:27.553Z,81.01
2023-02-13T01:40:56.934Z,81.15
2023-02-13T01:43:42.482Z,81.19
2023-02-13T01:46:12.328Z,81.15
2023-02-13T01:48:41.633Z,81.16
2023-02-13T01:51:12.994Z,81.19
2023-02-13T01:53:44.031Z,81.17
2023-02-13T01:56:15.391Z,81.32
2023-02-13T01:58:45.938Z,81.28
2023-02-13T02:01:14.950Z,81.24
2023-02-13T02:03:48.334Z,81.29
2023-02-13T02:06:20.506Z,81.30
2023-02-13T02:08:50.141Z,81.47
2023-02-13T02:11:22.810Z,81.45
2023-02-13T02:13:52.111Z,81.43
2023-02-13T02:16:21.187Z,81.59
2023-02-13T02:18:50.450Z,81.53
2023-02-13T02:21:36.969Z,81.43
2023-02-13T02:24:17.192Z,81.62
2023-02-13T02:26:59.793Z,81.56
2023-02-13T02:29:45.107Z,81.75
2023-02-13T02:32:30.263Z,81.61
2023-02-13T02:35:03.855Z,81.54
2023-02-13T02:37:40.082Z,81.60
2023-02-13T02:40:16.778Z,81.65
2023-02-13T02:42:52.140Z,81.74
2023-02-13T02:45:26.131Z,81.76
2023-02-13T02:47:59.502Z,81.76
2023-02-13T02:50:33.033Z,81.84
2023-02-13T02:53:08.947Z,81.93
2023-02-13T02:55:41.264Z,81.82
2023-02-13T02:58:14.106Z,81.96
2023-02-13T03:00:43.655Z,81.90
2023-02-13T03:03:16.731Z,82.17
2023-02-13T03:05:47.320Z,81.98
2023-02-13T03:08:17.348Z,82.02
2023-02-13T03:10:46.938Z,82.06
2023-02-13T03:13:18.418Z,82.09
2023-02-13T03:15:48.350Z,82.28
2023-02-13T03:18:17.386Z,82.20
2023-02-13T03:20:52.404Z,82.55
2023-02-13T03:23:27.262Z,82.50
2023-02-13T03:26:06.318Z,82.61
2023-02-13T03:28:37.977Z,82.62
2023-02-13T03:31:13.250Z,82.58
2023-02-13T03:33:56.559Z,82.61
2023-02-13T03:36:31.971Z,82.72
2023-02-13T03:39:05.751Z,82.87
2023-02-13T03:41:38.474Z,82.91
2023-02-13T03:44:11.499Z,82.99
2023-02-13T03:46:42.388Z,82.84
2023-02-13T03:49:17.572Z,82.87
2023-02-13T03:51:49.112Z,82.90
2023-02-13T03:54:21.184Z,82.89
2023-02-13T03:56:52.094Z,83.03
2023-02-13T03:59:23.126Z,82.88
2023-02-13T04:01:54.919Z,82.91
2023-02-13T04:04:27.225Z,82.91
2023-02-13T04:06:58.735Z,82.80
2023-02-13T04:09:28.818Z,82.82
2023-02-13T04:12:02.344Z,82.67
2023-02-13T04:14:34.895Z,82.60
2023-02-13T04:17:05.470Z,82.64
2023-02-13T04:19:34.784Z,82.66
2023-02-13T04:22:03.946Z,82.57
2023-02-13T04:24:33.024Z,82.57
2023-02-13T04:27:02.059Z,82.68
2023-02-13T04:29:31.179Z,82.72
2023-02-13T04:32:00.373Z,82.87
2023-02-13T04:34:29.471Z,82.74
2023-02-13T04:36:58.684Z,82.85
2023-02-13T04:39:27.775Z,82.79
2023-02-13T04:41:57.268Z,82.92
2023-02-13T04:44:26.564Z,83.00
2023-02-13T04:46:55.695Z,82.86
2023-02-13T04:49:24.769Z,83.08
2023-02-13T04:51:53.818Z,82.96
2023-02-13T04:54:22.866Z,83.04
2023-02-13T04:56:51.954Z,83.14
2023-02-13T04:59:21.005Z,83.15
2023-02-13T05:01:50.287Z,83.01
2023-02-13T05:04:19.459Z,82.85
2023-02-13T05:06:48.511Z,83.01
2023-02-13T05:09:17.662Z,82.91
2023-02-13T05:11:46.742Z,82.91
2023-02-13T05:14:15.999Z,82.86
2023-02-13T05:16:45.162Z,82.87
2023-02-13T05:19:14.177Z,82.87
2023-02-13T05:21:43.227Z,82.83
2023-02-13T05:24:12.342Z,82.75
2023-02-13T05:26:41.405Z,82.70
2023-02-13T05:29:10.666Z,82.62
2023-02-13T05:31:39.874Z,82.71
2023-02-13T05:34:09.032Z,82.73
2023-02-13T05:36:38.176Z,82.63
2023-02-13T05:39:07.610Z,82.80
2023-02-13T05:41:36.647Z,82.60
2023-02-13T05:44:05.748Z,82.68
2023-02-13T05:46:35.161Z,82.68
2023-02-13T05:49:04.938Z,82.69
2023-02-13T05:51:34.085Z,82.56
2023-02-13T05:54:03.289Z,82.46
2023-02-13T05:56:32.339Z,82.65
2023-02-13T05:59:01.363Z,82.58
2023-02-13T06:01:30.480Z,82.65
2023-02-13T06:04:02.057Z,82.70
2023-02-13T06:06:32.521Z,82.79
2023-02-13T06:09:01.713Z,82.79
2023-02-13T06:11:30.929Z,82.64
2023-02-13T06:14:00.062Z,82.64
2023-02-13T06:16:29.174Z,82.78
2023-02-13T06:18:58.315Z,82.64
2023-02-13T06:21:27.437Z,82.55
2023-02-13T06:23:56.505Z,82.65
2023-02-13T06:26:25.573Z,82.57
2023-02-13T06:28:54.702Z,82.67
2023-02-13T06:31:23.900Z,82.48
2023-02-13T06:33:53.022Z,82.45
2023-02-13T06:36:22.201Z,82.53
2023-02-13T06:38:51.315Z,82.42
2023-02-13T06:41:20.438Z,82.43
2023-02-13T06:43:49.541Z,82.24
2023-02-13T06:46:18.656Z,82.21
2023-02-13T06:48:47.726Z,82.17
2023-02-13T06:51:16.794Z,82.04
2023-02-13T06:53:45.895Z,81.73
2023-02-13T06:56:14.950Z,81.56
2023-02-13T06:58:44.068Z,81.50
2023-02-13T07:01:13.732Z,81.45
2023-02-13T07:03:42.802Z,81.13
2023-02-13T07:06:16.670Z,81.09
2023-02-13T07:08:45.837Z,81.25
2023-02-13T07:11:18.521Z,81.25
2023-02-13T07:13:47.622Z,81.20
2023-02-13T07:16:16.677Z,81.28
2023-02-13T07:18:45.875Z,81.32
2023-02-13T07:21:14.994Z,81.40
2023-02-13T07:23:44.066Z,81.34
2023-02-13T07:26:13.119Z,81.41
2023-02-13T07:28:42.207Z,81.44
2023-02-13T07:31:11.355Z,81.18
2023-02-13T07:33:40.597Z,81.16
2023-02-13T07:36:09.726Z,81.30
2023-02-13T07:38:38.911Z,81.06
2023-02-13T07:41:08.789Z,81.02
2023-02-13T07:43:37.871Z,80.82
2023-02-13T07:46:06.969Z,81.02
2023-02-13T07:48:36.144Z,80.96
2023-02-13T07:51:10.375Z,80.58
2023-02-13T07:53:40.095Z,80.71
2023-02-13T07:56:11.049Z,80.85
2023-02-13T07:58:41.683Z,80.93
2023-02-13T08:01:12.156Z,80.78
2023-02-13T08:03:41.320Z,80.79
2023-02-13T08:06:10.473Z,80.69
2023-02-13T08:08:39.579Z,80.39
2023-02-13T08:11:19.228Z,80.31
2023-02-13T08:13:48.412Z,80.35
2023-02-13T08:16:17.560Z,80.27
2023-02-13T08:18:46.709Z,80.07
2023-02-13T08:21:15.780Z,80.04
2023-02-13T08:23:44.837Z,80.02
2023-02-13T08:26:14.068Z,80.01
2023-02-13T08:28:43.242Z,80.02
2023-02-13T08:31:12.898Z,80.00
2023-02-13T08:33:41.945Z,80.06
2023-02-13T08:36:11.187Z,80.04
2023-02-13T08:41:14.237Z,79.60
2023-02-13T08:43:43.254Z,79.72
2023-02-13T08:46:12.324Z,79.67
2023-02-13T08:48:41.525Z,79.46
2023-02-13T08:51:12.008Z,79.32
2023-02-13T08:53:41.525Z,79.37
2023-02-13T08:56:10.752Z,79.32
2023-02-13T08:58:39.948Z,78.93
2023-02-13T09:01:09.134Z,79.01
2023-02-13T09:03:38.348Z,78.88
2023-02-13T09:06:07.914Z,78.61
2023-02-13T09:08:37.178Z,78.54
2023-02-13T09:11:06.382Z,78.50
2023-02-13T09:13:36.233Z,78.49
2023-02-13T09:16:06.127Z,78.68
2023-02-13T09:18:35.354Z,78.60
2023-02-13T09:21:06.001Z,78.68
2023-02-13T09:23:35.920Z,78.49
2023-02-13T09:26:06.177Z,78.63
2023-02-13T09:28:35.978Z,78.58
2023-02-13T09:31:07.184Z,78.54
2023-02-13T09:33:36.831Z,78.45
2023-02-13T09:36:06.851Z,78.67
2023-02-13T09:38:35.955Z,78.48
2023-02-13T09:41:07.721Z,78.44
2023-02-13T09:43:37.913Z,78.45
2023-02-13T09:46:12.011Z,78.41
2023-02-13T09:48:43.321Z,78.33
2023-02-13T09:51:14.885Z,77.95
2023-02-13T09:53:48.474Z,77.84
2023-02-13T09:56:21.119Z,77.87
2023-02-13T09:58:52.940Z,77.92
2023-02-13T10:01:25.310Z,77.57
2023-02-13T10:04:02.790Z,77.52
2023-02-13T10:06:36.041Z,77.45
2023-02-13T10:09:12.214Z,77.32
2023-02-13T10:11:54.703Z,76.99
2023-02-13T10:14:27.762Z,76.95
2023-02-13T10:16:59.020Z,77.14
2023-02-13T10:19:35.403Z,76.77
2023-02-13T10:22:11.118Z,76.50
2023-02-13T10:24:42.978Z,76.10
2023-02-13T10:27:17.360Z,76.48
2023-02-13T10:29:48.157Z,75.98
2023-02-13T10:32:19.266Z,75.99
2023-02-13T10:34:50.651Z,76.31
2023-02-13T10:37:21.039Z,76.24
2023-02-13T10:39:51.108Z,76.50
2023-02-13T10:42:22.472Z,76.01
2023-02-13T10:45:03.575Z,76.21
2023-02-13T10:47:43.658Z,76.24
2023-02-13T10:50:19.667Z,76.18
2023-02-13T10:53:05.466Z,76.19
2023-02-13T10:55:54.111Z,76.42
2023-02-13T10:58:26.786Z,76.29
2023-02-13T11:00:59.109Z,75.92
2023-02-13T11:03:29.433Z,75.80
2023-02-13T11:06:00.698Z,75.98
2023-02-13T11:08:32.460Z,75.91
2023-02-13T11:11:01.586Z,75.94
2023-02-13T11:13:30.969Z,75.74
2023-02-13T11:16:02.493Z,75.74
2023-02-13T11:18:33.168Z,75.77
2023-02-13T11:21:05.064Z,75.38
2023-02-13T11:23:40.456Z,75.33
2023-02-13T11:26:11.573Z,75.76
2023-02-13T11:28:48.143Z,75.31
2023-02-13T11:31:22.962Z,75.35
2023-02-13T11:33:52.497Z,74.43
2023-02-13T11:36:26.144Z,74.86
2023-02-13T11:39:02.610Z,74.76
2023-02-13T11:41:36.705Z,75.00
2023-02-13T11:44:05.840Z,74.90
2023-02-13T11:46:46.769Z,74.67
2023-02-13T11:49:18.840Z,73.87
2023-02-13T11:51:49.432Z,73.90
2023-02-13T11:54:33.353Z,73.09
2023-02-13T11:57:05.621Z,74.04
2023-02-13T11:59:41.192Z,74.00
2023-02-13T12:02:15.630Z,73.20
2023-02-13T12:04:45.196Z,72.69
2023-02-13T12:07:16.689Z,72.65
2023-02-13T12:09:46.856Z,72.49
2023-02-13T12:12:19.476Z,72.87
2023-02-13T12:14:49.012Z,71.96
2023-02-13T12:17:30.805Z,72.01
2023-02-13T12:20:01.241Z,72.40
2023-02-13T12:22:39.622Z,71.38
2023-02-13T12:25:28.855Z,72.35
2023-02-13T12:28:20.670Z,71.74
2023-02-13T12:31:04.314Z,71.55
2023-02-13T12:33:55.752Z,71.67
2023-02-13T12:36:30.143Z,71.40
2023-02-13T12:39:07.746Z,71.21
2023-02-13T12:41:43.291Z,71.86
2023-02-13T12:44:28.778Z,71.11
2023-02-13T12:47:01.988Z,71.43
2023-02-13T12:49:44.703Z,72.09
2023-02-13T12:52:23.845Z,71.54
2023-02-13T12:55:00.359Z,71.57
2023-02-13T12:57:36.669Z,71.83
2023-02-13T13:00:17.365Z,71.96
2023-02-13T13:02:51.768Z,71.88
2023-02-13T13:05:31.146Z,71.13
2023-02-13T13:08:34.142Z,70.71
2023-02-13T13:11:19.346Z,71.31
2023-02-13T13:13:54.478Z,71.36
2023-02-13T13:16:28.031Z,71.71
2023-02-13T13:19:03.637Z,70.64
2023-02-13T13:21:51.259Z,71.29
2023-02-13T13:24:30.622Z,71.28
2023-02-13T13:27:00.350Z,71.55
2023-02-13T13:29:32.730Z,71.50
2023-02-13T13:32:03.777Z,71.04
2023-02-13T13:34:34.216Z,71.22
2023-02-13T13:37:07.269Z,70.80
2023-02-13T13:39:42.982Z,70.10
2023-02-13T13:42:16.667Z,70.83
2023-02-13T13:44:51.585Z,70.06
2023-02-13T13:47:25.228Z,69.01
2023-02-13T13:49:55.638Z,69.86
2023-02-13T13:52:26.733Z,70.01
2023-02-13T13:54:57.328Z,69.31
2023-02-13T13:57:26.741Z,68.85
2023-02-13T14:00:14.415Z,69.29
2023-02-13T14:02:46.237Z,69.39
2023-02-13T14:05:24.719Z,69.79
2023-02-13T14:07:54.968Z,69.22
2023-02-13T14:10:37.584Z,69.97
2023-02-13T14:13:07.266Z,69.13
2023-02-13T14:15:53.962Z,69.82
2023-02-13T14:18:24.218Z,69.45
2023-02-13T14:20:55.273Z,68.99
2023-02-13T14:23:28.116Z,68.83
2023-02-13T14:26:14.395Z,68.80
2023-02-13T14:28:54.219Z,68.95
2023-02-13T14:31:25.909Z,69.02
2023-02-13T14:33:59.508Z,69.29
2023-02-13T14:36:30.213Z,68.84
2023-02-13T14:39:01.137Z,69.23
2023-02-13T14:41:43.310Z,69.49
2023-02-13T14:44:17.001Z,68.89
2023-02-13T14:46:48.880Z,69.36
2023-02-13T14:49:20.280Z,69.34
2023-02-13T14:51:51.320Z,69.76
2023-02-13T14:54:24.859Z,69.31
2023-02-13T14:56:59.199Z,69.81
2023-02-13T14:59:30.350Z,69.48
2023-02-13T15:02:00.693Z,69.60
2023-02-13T15:04:31.764Z,69.77
2023-02-13T15:07:02.352Z,69.53
2023-02-13T15:09:36.780Z,69.95
2023-02-13T15:12:23.668Z,70.11
2023-02-13T15:14:52.815Z,69.50
2023-02-13T15:17:23.269Z,69.69
2023-02-13T15:19:53.249Z,69.88
2023-02-13T15:22:32.274Z,69.73
2023-02-13T15:25:01.685Z,69.91
2023-02-13T15:27:31.884Z,70.11
2023-02-13T15:30:02.406Z,70.30
2023-02-13T15:32:32.668Z,70.23
2023-02-13T15:35:01.876Z,70.38
2023-02-13T15:37:31.144Z,70.00
2023-02-13T15:40:14.705Z,70.29
2023-02-13T15:42:43.908Z,70.39
2023-02-13T15:45:16.110Z,70.51
2023-02-13T15:47:46.648Z,70.45
2023-02-13T15:50:17.900Z,70.51
2023-02-13T15:52:47.558Z,70.56
2023-02-13T15:55:21.002Z,70.43
2023-02-13T15:57:50.993Z,70.59
2023-02-13T16:00:22.330Z,70.59
2023-02-13T16:02:52.566Z,70.75
2023-02-13T16:05:38.652Z,70.77
2023-02-13T16:08:27.717Z,70.57
2023-02-13T16:11:25.429Z,70.63
2023-02-13T16:14:00.127Z,70.88
2023-02-13T16:16:31.189Z,70.94
2023-02-13T16:19:00.341Z,70.98
2023-02-13T16:21:30.544Z,70.83
2023-02-13T16:24:01.417Z,71.10
2023-02-13T16:26:30.558Z,70.88
2023-02-13T16:28:59.688Z,70.99
2023-02-13T16:31:29.368Z,70.85
2023-02-13T16:33:58.501Z,70.76
2023-02-13T16:36:29.050Z,70.54
2023-02-13T16:38:58.398Z,70.70
2023-02-13T16:41:31.998Z,70.61
2023-02-13T16:44:01.335Z,70.71
2023-02-13T16:46:34.461Z,70.93
2023-02-13T16:49:17.035Z,70.50
2023-02-13T16:51:47.933Z,70.17
2023-02-13T16:54:20.153Z,70.35
2023-02-13T16:56:50.291Z,70.33
2023-02-13T16:59:24.136Z,70.00
2023-02-13T17:02:11.903Z,70.31
2023-02-13T17:04:42.114Z,70.43
2023-02-13T17:07:13.497Z,70.62
2023-02-13T17:09:42.952Z,70.55
2023-02-13T17:12:16.132Z,70.68
2023-02-13T17:14:45.808Z,70.28
2023-02-13T17:17:16.141Z,70.14
2023-02-13T17:19:45.549Z,70.30
2023-02-13T17:22:21.373Z,70.29
2023-02-13T17:24:50.505Z,70.61
2023-02-13T17:27:21.242Z,70.84
2023-02-13T17:29:51.846Z,70.73
2023-02-13T17:32:22.187Z,70.65
2023-02-13T17:34:51.668Z,70.77
2023-02-13T17:37:21.906Z,70.87
2023-02-13T17:39:51.594Z,70.99
2023-02-13T17:42:23.577Z,71.20
2023-02-13T17:44:52.981Z,71.20
2023-02-13T17:47:22.085Z,71.19
2023-02-13T17:49:53.558Z,71.05
2023-02-13T17:52:25.754Z,71.04
2023-02-13T17:54:54.856Z,70.99
2023-02-13T17:57:24.047Z,70.73
2023-02-13T17:59:53.163Z,70.27
2023-02-13T18:02:22.789Z,70.19
2023-02-13T18:04:52.216Z,70.36
2023-02-13T18:07:21.848Z,70.29
2023-02-13T18:09:51.095Z,70.39
2023-02-13T18:12:21.721Z,70.52
2023-02-13T18:14:51.277Z,70.39
2023-02-13T18:17:20.735Z,70.49
2023-02-13T18:19:49.889Z,70.49
2023-02-13T18:22:19.750Z,70.49
2023-02-13T18:24:49.105Z,70.72
2023-02-13T18:27:18.534Z,70.63
2023-02-13T18:29:47.532Z,70.52
2023-02-13T18:32:16.811Z,70.47
2023-02-13T18:34:46.058Z,70.54
2023-02-13T18:37:15.132Z,70.43
2023-02-13T18:39:44.448Z,70.40
2023-02-13T18:42:13.672Z,70.66
2023-02-13T18:44:42.849Z,70.48
2023-02-13T18:47:12.077Z,70.46
2023-02-13T18:49:42.192Z,70.10
2023-02-13T18:52:11.426Z,70.10
2023-02-13T18:54:40.898Z,69.94
2023-02-13T18:57:10.056Z,69.70
2023-02-13T18:59:39.318Z,69.83
2023-02-13T19:02:09.749Z,69.73
2023-02-13T19:04:39.040Z,69.57
2023-02-13T19:07:08.534Z,69.43
2023-02-13T19:09:38.517Z,69.18
2023-02-13T19:12:08.272Z,69.33
2023-02-13T19:14:37.658Z,69.56
2023-02-13T19:17:07.240Z,69.87
2023-02-13T19:19:36.725Z,69.86
2023-02-13T19:22:06.032Z,69.58
2023-02-13T19:24:35.377Z,69.31
2023-02-13T19:27:04.664Z,69.34
2023-02-13T19:29:33.740Z,69.34
2023-02-13T19:32:03.086Z,69.25
2023-02-13T19:34:32.480Z,69.27
2023-02-13T19:37:01.995Z,69.28
2023-02-13T19:39:31.357Z,69.32
2023-02-13T19:42:00.457Z,69.42
2023-02-13T19:44:29.510Z,69.26
2023-02-13T19:46:58.867Z,69.17
2023-02-13T19:49:27.990Z,69.38
2023-02-13T19:51:57.296Z,69.14
2023-02-13T19:54:26.467Z,69.13
2023-02-13T19:56:55.819Z,69.21
2023-02-13T19:59:24.993Z,69.08
2023-02-13T20:01:54.533Z,69.10
2023-02-13T20:04:24.268Z,68.46
2023-02-13T20:06:53.587Z,68.77
2023-02-13T20:09:22.884Z,68.99
2023-02-13T20:11:52.281Z,68.84
2023-02-13T20:14:21.579Z,68.65
2023-02-13T20:16:50.979Z,68.98
2023-02-13T20:19:20.131Z,68.91
2023-02-13T20:21:49.433Z,68.49
2023-02-13T20:24:18.789Z,68.79
2023-02-13T20:26:48.158Z,68.90
2023-02-13T20:29:17.235Z,68.77
2023-02-13T20:31:46.848Z,68.85
2023-02-13T20:34:16.457Z,68.76
2023-02-13T20:36:45.596Z,68.90
2023-02-13T20:39:14.871Z,68.63
2023-02-13T20:41:44.326Z,68.65
2023-02-13T20:44:13.353Z,68.64
2023-02-13T20:46:42.406Z,68.68
2023-02-13T20:49:12.087Z,68.76
2023-02-13T20:51:41.367Z,68.72
2023-02-13T20:54:11.340Z,68.87
2023-02-13T20:56:40.661Z,68.91
2023-02-13T20:59:09.709Z,68.72
2023-02-13T21:01:38.829Z,68.86
2023-02-13T21:04:08.490Z,68.65
2023-02-13T21:06:37.797Z,68.50
2023-02-13T21:09:07.832Z,68.50
2023-02-13T21:11:37.533Z,68.61
2023-02-13T21:14:06.764Z,68.80
2023-02-13T21:16:37.152Z,68.90
2023-02-13T21:19:07.501Z,68.90
2023-02-13T21:21:37.308Z,68.83
2023-02-13T21:24:08.396Z,68.74
2023-02-13T21:26:37.793Z,68.87
2023-02-13T21:29:07.311Z,68.82
2023-02-13T21:31:38.186Z,68.89
2023-02-13T21:34:08.281Z,68.92
2023-02-13T21:36:38.206Z,68.87
2023-02-13T21:39:09.024Z,68.68
2023-02-13T21:41:38.924Z,68.64
2023-02-13T21:44:07.991Z,68.80
2023-02-13T21:46:37.037Z,68.62
2023-02-13T21:49:07.089Z,68.64
2023-02-13T21:51:36.163Z,68.72
2023-02-13T21:54:05.459Z,68.68
2023-02-13T21:56:35.367Z,68.70
2023-02-13T21:59:05.373Z,68.76
2023-02-13T22:01:35.438Z,68.97
2023-02-13T22:04:05.364Z,68.80
2023-02-13T22:06:35.782Z,68.58
2023-02-13T22:09:06.064Z,68.55
2023-02-13T22:11:35.511Z,68.80
2023-02-13T22:14:05.840Z,68.69
2023-02-13T22:16:35.765Z,68.75
2023-02-13T22:19:05.858Z,68.63
2023-02-13T22:21:35.620Z,68.71
2023-02-13T22:24:04.958Z,68.75
2023-02-13T22:26:35.115Z,68.69
2023-02-13T22:29:05.701Z,68.77
2023-02-13T22:31:35.084Z,68.77
2023-02-13T22:34:05.703Z,68.67
2023-02-13T22:36:35.967Z,68.55
2023-02-13T22:39:05.113Z,68.62
2023-02-13T22:41:34.163Z,68.48
2023-02-13T22:44:03.302Z,68.58
2023-02-13T22:46:33.065Z,68.54
2023-02-13T22:49:02.223Z,68.64
2023-02-13T22:51:32.294Z,68.67
2023-02-13T22:54:01.412Z,68.67
2023-02-13T22:56:31.145Z,68.76
2023-02-13T22:59:00.449Z,68.83
2023-02-13T23:01:29.637Z,68.87
2023-02-13T23:03:58.783Z,68.79
2023-02-13T23:06:27.942Z,69.00
2023-02-13T23:08:57.224Z,69.03
2023-02-13T23:11:27.631Z,69.05
2023-02-13T23:13:56.915Z,69.00
2023-02-13T23:16:26.426Z,69.07
2023-02-13T23:18:56.025Z,68.90
2023-02-13T23:21:25.635Z,68.94
2023-02-13T23:23:54.765Z,69.06
2023-02-13T23:26:23.850Z,69.16
2023-02-13T23:28:52.870Z,69.12
2023-02-13T23:31:22.088Z,69.09
2023-02-13T23:33:51.322Z,68.91
2023-02-13T23:36:20.441Z,69.09
2023-02-13T23:38:49.504Z,69.14
2023-02-13T23:41:18.570Z,68.94
2023-02-13T23:43:47.609Z,69.06
2023-02-13T23:46:16.775Z,68.92
2023-02-13T23:48:45.891Z,68.80
2023-02-13T23:51:14.963Z,68.88
2023-02-13T23:53:44.041Z,68.80
2023-02-13T23:56:13.129Z,68.81
2023-02-13T23:58:42.114Z,69.05
